sensor_id;sensor_type;location;lat;lon;timestamp;pressure;altitude;pressure_sealevel;temperature
70050;BMP180;57391;51.306;22.680;2024-03-02T00:00:49;99487.40;;;7.30
70050;BMP180;57391;51.306;22.680;2024-03-02T00:03:11;99493.40;;;7.30
70050;BMP180;57391;51.306;22.680;2024-03-02T00:05:21;99490.40;;;7.30
70050;BMP180;57391;51.306;22.680;2024-03-02T00:07:24;99488.60;;;7.30
70050;BMP180;57391;51.306;22.680;2024-03-02T00:09:26;99490.40;;;7.30
70050;BMP180;57391;51.306;22.680;2024-03-02T00:11:29;99489.80;;;7.26
70050;BMP180;57391;51.306;22.680;2024-03-02T00:13:31;99490.00;;;7.20
70050;BMP180;57391;51.306;22.680;2024-03-02T00:17:53;99495.60;;;7.20
70050;BMP180;57391;51.306;22.680;2024-03-02T00:19:55;99486.80;;;7.20
70050;BMP180;57391;51.306;22.680;2024-03-02T00:22:01;99479.60;;;7.22
70050;BMP180;57391;51.306;22.680;2024-03-02T00:24:20;99485.20;;;7.20
70050;BMP180;57391;51.306;22.680;2024-03-02T00:26:23;99484.80;;;7.20
70050;BMP180;57391;51.306;22.680;2024-03-02T00:28:32;99476.80;;;7.20
70050;BMP180;57391;51.306;22.680;2024-03-02T00:31:06;99478.60;;;7.20
70050;BMP180;57391;51.306;22.680;2024-03-02T00:33:10;99471.60;;;7.20
70050;BMP180;57391;51.306;22.680;2024-03-02T00:35:13;99473.20;;;7.20
70050;BMP180;57391;51.306;22.680;2024-03-02T00:37:15;99476.20;;;7.20
70050;BMP180;57391;51.306;22.680;2024-03-02T00:39:18;99474.20;;;7.20
70050;BMP180;57391;51.306;22.680;2024-03-02T00:43:47;99473.80;;;7.20
70050;BMP180;57391;51.306;22.680;2024-03-02T00:45:49;99475.00;;;7.20
70050;BMP180;57391;51.306;22.680;2024-03-02T00:47:52;99473.20;;;7.20
70050;BMP180;57391;51.306;22.680;2024-03-02T00:49:55;99470.60;;;7.20
70050;BMP180;57391;51.306;22.680;2024-03-02T00:51:57;99472.60;;;7.20
70050;BMP180;57391;51.306;22.680;2024-03-02T00:54:03;99469.40;;;7.18
70050;BMP180;57391;51.306;22.680;2024-03-02T00:56:11;99464.40;;;7.14
70050;BMP180;57391;51.306;22.680;2024-03-02T00:58:13;99466.60;;;7.12
70050;BMP180;57391;51.306;22.680;2024-03-02T01:00:16;99466.00;;;7.10
70050;BMP180;57391;51.306;22.680;2024-03-02T01:02:19;99468.80;;;7.10
70050;BMP180;57391;51.306;22.680;2024-03-02T01:04:22;99465.80;;;7.10
70050;BMP180;57391;51.306;22.680;2024-03-02T01:06:24;99467.40;;;7.10
70050;BMP180;57391;51.306;22.680;2024-03-02T01:08:26;99462.40;;;7.10
70050;BMP180;57391;51.306;22.680;2024-03-02T01:10:29;99463.00;;;7.10
70050;BMP180;57391;51.306;22.680;2024-03-02T01:12:31;99464.20;;;7.10
70050;BMP180;57391;51.306;22.680;2024-03-02T01:14:33;99459.40;;;7.08
70050;BMP180;57391;51.306;22.680;2024-03-02T01:16:36;99457.40;;;7.10
70050;BMP180;57391;51.306;22.680;2024-03-02T01:18:39;99456.00;;;7.10
70050;BMP180;57391;51.306;22.680;2024-03-02T01:20:41;99453.60;;;7.10
70050;BMP180;57391;51.306;22.680;2024-03-02T01:22:43;99454.20;;;7.10
70050;BMP180;57391;51.306;22.680;2024-03-02T01:24:45;99447.20;;;7.08
70050;BMP180;57391;51.306;22.680;2024-03-02T01:26:47;99447.80;;;7.00
70050;BMP180;57391;51.306;22.680;2024-03-02T01:28:50;99444.20;;;7.00
70050;BMP180;57391;51.306;22.680;2024-03-02T01:30:52;99443.80;;;7.00
70050;BMP180;57391;51.306;22.680;2024-03-02T01:32:54;99444.20;;;7.00
70050;BMP180;57391;51.306;22.680;2024-03-02T01:34:57;99440.00;;;7.00
70050;BMP180;57391;51.306;22.680;2024-03-02T01:36:59;99444.60;;;7.00
70050;BMP180;57391;51.306;22.680;2024-03-02T01:39:01;99433.40;;;7.00
70050;BMP180;57391;51.306;22.680;2024-03-02T01:41:04;99432.20;;;7.00
70050;BMP180;57391;51.306;22.680;2024-03-02T01:43:07;99431.00;;;7.00
70050;BMP180;57391;51.306;22.680;2024-03-02T01:45:09;99432.60;;;7.00
70050;BMP180;57391;51.306;22.680;2024-03-02T01:47:11;99429.80;;;7.00
70050;BMP180;57391;51.306;22.680;2024-03-02T01:49:13;99431.40;;;7.00
70050;BMP180;57391;51.306;22.680;2024-03-02T01:51:15;99426.80;;;7.00
70050;BMP180;57391;51.306;22.680;2024-03-02T01:53:18;99429.40;;;7.00
70050;BMP180;57391;51.306;22.680;2024-03-02T01:55:20;99431.40;;;7.00
70050;BMP180;57391;51.306;22.680;2024-03-02T01:57:22;99433.00;;;7.00
70050;BMP180;57391;51.306;22.680;2024-03-02T01:59:25;99437.00;;;7.00
70050;BMP180;57391;51.306;22.680;2024-03-02T02:01:27;99441.00;;;7.00
70050;BMP180;57391;51.306;22.680;2024-03-02T02:03:29;99432.80;;;7.00
70050;BMP180;57391;51.306;22.680;2024-03-02T02:05:31;99435.60;;;7.04
70050;BMP180;57391;51.306;22.680;2024-03-02T02:07:35;99431.60;;;7.04
70050;BMP180;57391;51.306;22.680;2024-03-02T02:09:37;99431.00;;;7.08
70050;BMP180;57391;51.306;22.680;2024-03-02T02:11:40;99432.00;;;7.08
70050;BMP180;57391;51.306;22.680;2024-03-02T02:13:42;99426.20;;;7.04
70050;BMP180;57391;51.306;22.680;2024-03-02T02:15:44;99427.40;;;7.06
70050;BMP180;57391;51.306;22.680;2024-03-02T02:17:47;99418.60;;;7.10
70050;BMP180;57391;51.306;22.680;2024-03-02T02:19:49;99411.00;;;7.06
70050;BMP180;57391;51.306;22.680;2024-03-02T02:21:51;99414.40;;;7.02
70050;BMP180;57391;51.306;22.680;2024-03-02T02:23:54;99406.40;;;7.00
70050;BMP180;57391;51.306;22.680;2024-03-02T02:25:56;99411.40;;;7.00
70050;BMP180;57391;51.306;22.680;2024-03-02T02:27:58;99419.60;;;7.00
70050;BMP180;57391;51.306;22.680;2024-03-02T02:30:00;99415.20;;;7.00
70050;BMP180;57391;51.306;22.680;2024-03-02T02:32:05;99413.40;;;7.00
70050;BMP180;57391;51.306;22.680;2024-03-02T02:34:07;99406.40;;;7.00
70050;BMP180;57391;51.306;22.680;2024-03-02T02:36:10;99400.40;;;7.00
70050;BMP180;57391;51.306;22.680;2024-03-02T02:38:13;99395.40;;;7.00
70050;BMP180;57391;51.306;22.680;2024-03-02T02:40:15;99400.00;;;7.00
70050;BMP180;57391;51.306;22.680;2024-03-02T02:42:24;99401.20;;;7.00
70050;BMP180;57391;51.306;22.680;2024-03-02T02:44:26;99401.60;;;6.98
70050;BMP180;57391;51.306;22.680;2024-03-02T02:46:28;99402.20;;;6.98
70050;BMP180;57391;51.306;22.680;2024-03-02T02:48:31;99407.40;;;7.00
70050;BMP180;57391;51.306;22.680;2024-03-02T02:50:33;99410.80;;;7.00
70050;BMP180;57391;51.306;22.680;2024-03-02T02:52:39;99412.80;;;7.00
70050;BMP180;57391;51.306;22.680;2024-03-02T02:54:41;99406.40;;;7.00
70050;BMP180;57391;51.306;22.680;2024-03-02T02:56:44;99410.20;;;7.00
70050;BMP180;57391;51.306;22.680;2024-03-02T02:58:46;99412.60;;;7.00
70050;BMP180;57391;51.306;22.680;2024-03-02T03:00:49;99404.00;;;7.00
70050;BMP180;57391;51.306;22.680;2024-03-02T03:02:51;99408.20;;;7.00
70050;BMP180;57391;51.306;22.680;2024-03-02T03:04:53;99407.00;;;7.00
70050;BMP180;57391;51.306;22.680;2024-03-02T03:06:55;99412.80;;;7.00
70050;BMP180;57391;51.306;22.680;2024-03-02T03:08:58;99405.60;;;7.02
70050;BMP180;57391;51.306;22.680;2024-03-02T03:11:00;99394.80;;;7.00
70050;BMP180;57391;51.306;22.680;2024-03-02T03:13:02;99402.40;;;7.04
70050;BMP180;57391;51.306;22.680;2024-03-02T03:15:05;99397.00;;;7.00
70050;BMP180;57391;51.306;22.680;2024-03-02T03:17:08;99396.80;;;7.00
70050;BMP180;57391;51.306;22.680;2024-03-02T03:19:10;99399.40;;;7.00
70050;BMP180;57391;51.306;22.680;2024-03-02T03:21:12;99399.40;;;7.00
70050;BMP180;57391;51.306;22.680;2024-03-02T03:23:14;99397.00;;;7.00
70050;BMP180;57391;51.306;22.680;2024-03-02T03:25:17;99393.60;;;7.00
70050;BMP180;57391;51.306;22.680;2024-03-02T03:27:19;99394.40;;;7.00
70050;BMP180;57391;51.306;22.680;2024-03-02T03:29:21;99394.00;;;7.00
70050;BMP180;57391;51.306;22.680;2024-03-02T03:31:24;99390.40;;;7.02
70050;BMP180;57391;51.306;22.680;2024-03-02T03:33:25;99389.60;;;7.02
70050;BMP180;57391;51.306;22.680;2024-03-02T03:35:27;99399.40;;;7.02
70050;BMP180;57391;51.306;22.680;2024-03-02T03:37:30;99401.40;;;7.00
70050;BMP180;57391;51.306;22.680;2024-03-02T03:39:35;99397.80;;;7.00
70050;BMP180;57391;51.306;22.680;2024-03-02T03:41:42;99387.20;;;7.00
70050;BMP180;57391;51.306;22.680;2024-03-02T03:43:44;99385.20;;;7.00
70050;BMP180;57391;51.306;22.680;2024-03-02T03:45:46;99399.80;;;7.00
70050;BMP180;57391;51.306;22.680;2024-03-02T03:47:48;99401.80;;;7.00
70050;BMP180;57391;51.306;22.680;2024-03-02T03:49:51;99382.80;;;7.00
70050;BMP180;57391;51.306;22.680;2024-03-02T03:51:53;99380.40;;;6.96
70050;BMP180;57391;51.306;22.680;2024-03-02T03:53:56;99392.00;;;6.90
70050;BMP180;57391;51.306;22.680;2024-03-02T03:55:58;99390.20;;;6.96
70050;BMP180;57391;51.306;22.680;2024-03-02T03:58:00;99397.20;;;6.98
70050;BMP180;57391;51.306;22.680;2024-03-02T04:00:03;99374.00;;;6.92
70050;BMP180;57391;51.306;22.680;2024-03-02T04:02:06;99376.40;;;6.90
70050;BMP180;57391;51.306;22.680;2024-03-02T04:04:08;99370.20;;;6.90
70050;BMP180;57391;51.306;22.680;2024-03-02T04:06:10;99375.60;;;6.90
70050;BMP180;57391;51.306;22.680;2024-03-02T04:08:12;99382.60;;;6.90
70050;BMP180;57391;51.306;22.680;2024-03-02T04:10:14;99367.60;;;6.90
70050;BMP180;57391;51.306;22.680;2024-03-02T04:12:18;99355.20;;;6.88
70050;BMP180;57391;51.306;22.680;2024-03-02T04:14:20;99381.60;;;6.90
70050;BMP180;57391;51.306;22.680;2024-03-02T04:16:23;99382.80;;;6.90
70050;BMP180;57391;51.306;22.680;2024-03-02T04:18:25;99377.60;;;6.90
70050;BMP180;57391;51.306;22.680;2024-03-02T04:20:29;99382.20;;;6.90
70050;BMP180;57391;51.306;22.680;2024-03-02T04:22:33;99375.00;;;6.90
70050;BMP180;57391;51.306;22.680;2024-03-02T04:24:36;99380.00;;;6.90
70050;BMP180;57391;51.306;22.680;2024-03-02T04:26:38;99385.00;;;6.90
70050;BMP180;57391;51.306;22.680;2024-03-02T04:28:40;99367.60;;;6.90
70050;BMP180;57391;51.306;22.680;2024-03-02T04:30:42;99367.40;;;6.90
70050;BMP180;57391;51.306;22.680;2024-03-02T04:32:44;99368.60;;;6.86
70050;BMP180;57391;51.306;22.680;2024-03-02T04:34:50;99365.80;;;6.84
70050;BMP180;57391;51.306;22.680;2024-03-02T04:36:52;99359.60;;;6.80
70050;BMP180;57391;51.306;22.680;2024-03-02T04:38:54;99369.60;;;6.80
70050;BMP180;57391;51.306;22.680;2024-03-02T04:40:56;99373.80;;;6.80
70050;BMP180;57391;51.306;22.680;2024-03-02T04:42:59;99369.40;;;6.80
70050;BMP180;57391;51.306;22.680;2024-03-02T04:45:01;99366.00;;;6.80
70050;BMP180;57391;51.306;22.680;2024-03-02T04:47:04;99367.00;;;6.80
70050;BMP180;57391;51.306;22.680;2024-03-02T04:49:06;99367.40;;;6.80
70050;BMP180;57391;51.306;22.680;2024-03-02T04:51:08;99368.60;;;6.80
70050;BMP180;57391;51.306;22.680;2024-03-02T04:53:10;99371.20;;;6.80
70050;BMP180;57391;51.306;22.680;2024-03-02T04:55:13;99373.20;;;6.80
70050;BMP180;57391;51.306;22.680;2024-03-02T04:57:17;99377.20;;;6.80
70050;BMP180;57391;51.306;22.680;2024-03-02T04:59:19;99378.40;;;6.80
70050;BMP180;57391;51.306;22.680;2024-03-02T05:01:21;99370.40;;;6.82
70050;BMP180;57391;51.306;22.680;2024-03-02T05:03:24;99371.20;;;6.80
70050;BMP180;57391;51.306;22.680;2024-03-02T05:05:26;99370.80;;;6.80
70050;BMP180;57391;51.306;22.680;2024-03-02T05:07:28;99367.40;;;6.86
70050;BMP180;57391;51.306;22.680;2024-03-02T05:09:31;99372.60;;;6.88
70050;BMP180;57391;51.306;22.680;2024-03-02T05:11:33;99371.80;;;6.90
70050;BMP180;57391;51.306;22.680;2024-03-02T05:13:38;99374.40;;;6.90
70050;BMP180;57391;51.306;22.680;2024-03-02T05:15:40;99381.40;;;6.90
70050;BMP180;57391;51.306;22.680;2024-03-02T05:17:42;99388.40;;;6.90
70050;BMP180;57391;51.306;22.680;2024-03-02T05:19:44;99388.60;;;6.90
70050;BMP180;57391;51.306;22.680;2024-03-02T05:21:46;99395.20;;;6.92
70050;BMP180;57391;51.306;22.680;2024-03-02T05:23:48;99398.60;;;6.92
70050;BMP180;57391;51.306;22.680;2024-03-02T05:25:50;99401.40;;;6.90
70050;BMP180;57391;51.306;22.680;2024-03-02T05:27:53;99404.00;;;7.00
70050;BMP180;57391;51.306;22.680;2024-03-02T05:29:55;99401.00;;;7.00
70050;BMP180;57391;51.306;22.680;2024-03-02T05:31:57;99398.40;;;7.00
70050;BMP180;57391;51.306;22.680;2024-03-02T05:33:59;99402.40;;;7.00
70050;BMP180;57391;51.306;22.680;2024-03-02T05:36:02;99405.40;;;7.00
70050;BMP180;57391;51.306;22.680;2024-03-02T05:38:04;99409.40;;;7.00
70050;BMP180;57391;51.306;22.680;2024-03-02T05:40:07;99403.40;;;7.00
70050;BMP180;57391;51.306;22.680;2024-03-02T05:42:11;99402.60;;;6.96
70050;BMP180;57391;51.306;22.680;2024-03-02T05:44:13;99404.00;;;6.90
70050;BMP180;57391;51.306;22.680;2024-03-02T05:46:17;99406.80;;;6.92
70050;BMP180;57391;51.306;22.680;2024-03-02T05:48:19;99404.80;;;6.90
70050;BMP180;57391;51.306;22.680;2024-03-02T05:50:21;99405.00;;;6.90
70050;BMP180;57391;51.306;22.680;2024-03-02T05:52:24;99415.00;;;6.90
70050;BMP180;57391;51.306;22.680;2024-03-02T05:54:26;99412.80;;;6.90
70050;BMP180;57391;51.306;22.680;2024-03-02T05:56:28;99420.00;;;6.84
70050;BMP180;57391;51.306;22.680;2024-03-02T05:58:31;99415.00;;;6.80
70050;BMP180;57391;51.306;22.680;2024-03-02T06:00:52;99411.00;;;6.84
70050;BMP180;57391;51.306;22.680;2024-03-02T06:02:54;99408.20;;;6.86
70050;BMP180;57391;51.306;22.680;2024-03-02T06:04:56;99409.20;;;6.80
70050;BMP180;57391;51.306;22.680;2024-03-02T06:06:58;99416.00;;;6.84
70050;BMP180;57391;51.306;22.680;2024-03-02T06:09:01;99412.00;;;6.80
70050;BMP180;57391;51.306;22.680;2024-03-02T06:11:09;99417.60;;;6.80
70050;BMP180;57391;51.306;22.680;2024-03-02T06:13:12;99422.60;;;6.80
70050;BMP180;57391;51.306;22.680;2024-03-02T06:15:15;99418.20;;;6.80
70050;BMP180;57391;51.306;22.680;2024-03-02T06:17:17;99426.60;;;6.80
70050;BMP180;57391;51.306;22.680;2024-03-02T06:19:20;99425.40;;;6.80
70050;BMP180;57391;51.306;22.680;2024-03-02T06:21:22;99425.00;;;6.80
70050;BMP180;57391;51.306;22.680;2024-03-02T06:23:24;99424.40;;;6.80
70050;BMP180;57391;51.306;22.680;2024-03-02T06:25:26;99429.80;;;6.80
70050;BMP180;57391;51.306;22.680;2024-03-02T06:27:29;99425.60;;;6.80
70050;BMP180;57391;51.306;22.680;2024-03-02T06:29:34;99431.80;;;6.84
70050;BMP180;57391;51.306;22.680;2024-03-02T06:31:36;99431.60;;;6.90
70050;BMP180;57391;51.306;22.680;2024-03-02T06:33:37;99433.60;;;6.90
70050;BMP180;57391;51.306;22.680;2024-03-02T06:35:40;99440.80;;;6.90
70050;BMP180;57391;51.306;22.680;2024-03-02T06:37:42;99443.40;;;6.90
70050;BMP180;57391;51.306;22.680;2024-03-02T06:39:44;99439.80;;;6.90
70050;BMP180;57391;51.306;22.680;2024-03-02T06:41:47;99440.40;;;6.96
70050;BMP180;57391;51.306;22.680;2024-03-02T06:43:49;99433.40;;;7.00
70050;BMP180;57391;51.306;22.680;2024-03-02T06:45:52;99430.40;;;7.00
70050;BMP180;57391;51.306;22.680;2024-03-02T06:47:54;99430.60;;;7.00
70050;BMP180;57391;51.306;22.680;2024-03-02T06:49:56;99437.40;;;7.00
70050;BMP180;57391;51.306;22.680;2024-03-02T06:51:59;99436.20;;;7.00
70050;BMP180;57391;51.306;22.680;2024-03-02T06:54:02;99434.80;;;7.08
70050;BMP180;57391;51.306;22.680;2024-03-02T06:56:05;99432.60;;;7.10
70050;BMP180;57391;51.306;22.680;2024-03-02T06:58:07;99436.80;;;7.10
70050;BMP180;57391;51.306;22.680;2024-03-02T07:00:10;99438.80;;;7.10
70050;BMP180;57391;51.306;22.680;2024-03-02T07:02:12;99442.00;;;7.10
70050;BMP180;57391;51.306;22.680;2024-03-02T07:04:14;99443.60;;;7.10
70050;BMP180;57391;51.306;22.680;2024-03-02T07:06:19;99444.40;;;7.10
70050;BMP180;57391;51.306;22.680;2024-03-02T07:08:21;99448.40;;;7.10
70050;BMP180;57391;51.306;22.680;2024-03-02T07:10:28;99446.00;;;7.10
70050;BMP180;57391;51.306;22.680;2024-03-02T07:12:31;99448.20;;;7.10
70050;BMP180;57391;51.306;22.680;2024-03-02T07:14:33;99448.40;;;7.10
70050;BMP180;57391;51.306;22.680;2024-03-02T07:16:54;99450.20;;;7.10
70050;BMP180;57391;51.306;22.680;2024-03-02T07:18:56;99448.60;;;7.10
70050;BMP180;57391;51.306;22.680;2024-03-02T07:20:59;99443.00;;;7.10
70050;BMP180;57391;51.306;22.680;2024-03-02T07:23:02;99445.80;;;7.10
70050;BMP180;57391;51.306;22.680;2024-03-02T07:25:05;99451.00;;;7.10
70050;BMP180;57391;51.306;22.680;2024-03-02T07:27:09;99453.40;;;7.10
70050;BMP180;57391;51.306;22.680;2024-03-02T07:29:11;99457.60;;;7.10
70050;BMP180;57391;51.306;22.680;2024-03-02T07:31:14;99454.80;;;7.20
70050;BMP180;57391;51.306;22.680;2024-03-02T07:33:17;99460.20;;;7.20
70050;BMP180;57391;51.306;22.680;2024-03-02T07:35:19;99460.80;;;7.20
70050;BMP180;57391;51.306;22.680;2024-03-02T07:37:23;99457.40;;;7.20
70050;BMP180;57391;51.306;22.680;2024-03-02T07:39:26;99455.60;;;7.30
70050;BMP180;57391;51.306;22.680;2024-03-02T07:41:29;99448.00;;;7.30
70050;BMP180;57391;51.306;22.680;2024-03-02T07:43:33;99450.00;;;7.30
70050;BMP180;57391;51.306;22.680;2024-03-02T07:45:35;99454.00;;;7.30
70050;BMP180;57391;51.306;22.680;2024-03-02T07:47:38;99454.20;;;7.30
70050;BMP180;57391;51.306;22.680;2024-03-02T07:49:40;99456.00;;;7.30
70050;BMP180;57391;51.306;22.680;2024-03-02T07:51:43;99453.40;;;7.30
70050;BMP180;57391;51.306;22.680;2024-03-02T07:53:45;99449.80;;;7.32
70050;BMP180;57391;51.306;22.680;2024-03-02T07:55:47;99452.20;;;7.38
70050;BMP180;57391;51.306;22.680;2024-03-02T07:57:49;99459.20;;;7.36
70050;BMP180;57391;51.306;22.680;2024-03-02T07:59:52;99459.80;;;7.30
70050;BMP180;57391;51.306;22.680;2024-03-02T08:01:54;99462.00;;;7.30
70050;BMP180;57391;51.306;22.680;2024-03-02T08:04:01;99454.80;;;7.30
70050;BMP180;57391;51.306;22.680;2024-03-02T08:06:05;99450.80;;;7.30
70050;BMP180;57391;51.306;22.680;2024-03-02T08:08:07;99448.80;;;7.36
70050;BMP180;57391;51.306;22.680;2024-03-02T08:10:09;99448.80;;;7.38
70050;BMP180;57391;51.306;22.680;2024-03-02T08:12:12;99450.60;;;7.40
70050;BMP180;57391;51.306;22.680;2024-03-02T08:14:13;99449.40;;;7.40
70050;BMP180;57391;51.306;22.680;2024-03-02T08:16:16;99456.40;;;7.40
70050;BMP180;57391;51.306;22.680;2024-03-02T08:18:21;99458.80;;;7.46
70050;BMP180;57391;51.306;22.680;2024-03-02T08:20:26;99456.20;;;7.50
70050;BMP180;57391;51.306;22.680;2024-03-02T08:22:28;99446.20;;;7.50
70050;BMP180;57391;51.306;22.680;2024-03-02T08:24:34;99453.80;;;7.60
70050;BMP180;57391;51.306;22.680;2024-03-02T08:26:39;99459.60;;;7.60
70050;BMP180;57391;51.306;22.680;2024-03-02T08:28:50;99457.00;;;7.60
70050;BMP180;57391;51.306;22.680;2024-03-02T08:30:55;99461.20;;;7.70
70050;BMP180;57391;51.306;22.680;2024-03-02T08:33:17;99459.00;;;7.70
70050;BMP180;57391;51.306;22.680;2024-03-02T08:35:33;99455.40;;;7.70
70050;BMP180;57391;51.306;22.680;2024-03-02T08:37:41;99455.20;;;7.70
70050;BMP180;57391;51.306;22.680;2024-03-02T08:39:49;99454.80;;;7.70
70050;BMP180;57391;51.306;22.680;2024-03-02T08:45:13;99453.80;;;7.80
70050;BMP180;57391;51.306;22.680;2024-03-02T08:47:15;99455.80;;;7.80
70050;BMP180;57391;51.306;22.680;2024-03-02T08:49:17;99460.20;;;7.80
70050;BMP180;57391;51.306;22.680;2024-03-02T08:51:19;99457.00;;;7.80
70050;BMP180;57391;51.306;22.680;2024-03-02T08:53:21;99459.00;;;7.80
70050;BMP180;57391;51.306;22.680;2024-03-02T08:55:24;99461.20;;;7.88
70050;BMP180;57391;51.306;22.680;2024-03-02T08:57:26;99465.80;;;7.90
70050;BMP180;57391;51.306;22.680;2024-03-02T08:59:28;99467.40;;;7.90
70050;BMP180;57391;51.306;22.680;2024-03-02T09:01:30;99467.00;;;7.98
70050;BMP180;57391;51.306;22.680;2024-03-02T09:03:34;99467.00;;;8.00
70050;BMP180;57391;51.306;22.680;2024-03-02T09:05:36;99468.60;;;8.00
70050;BMP180;57391;51.306;22.680;2024-03-02T09:07:38;99465.60;;;7.90
70050;BMP180;57391;51.306;22.680;2024-03-02T09:09:42;99458.80;;;7.96
70050;BMP180;57391;51.306;22.680;2024-03-02T09:11:46;99464.00;;;8.00
70050;BMP180;57391;51.306;22.680;2024-03-02T09:13:48;99460.40;;;8.00
70050;BMP180;57391;51.306;22.680;2024-03-02T09:15:51;99462.60;;;8.06
70050;BMP180;57391;51.306;22.680;2024-03-02T09:17:53;99465.20;;;8.10
70050;BMP180;57391;51.306;22.680;2024-03-02T09:19:55;99463.40;;;8.10
70050;BMP180;57391;51.306;22.680;2024-03-02T09:21:57;99461.60;;;8.10
70050;BMP180;57391;51.306;22.680;2024-03-02T09:24:00;99459.80;;;8.10
70050;BMP180;57391;51.306;22.680;2024-03-02T09:26:04;99457.40;;;8.20
70050;BMP180;57391;51.306;22.680;2024-03-02T09:28:06;99461.00;;;8.20
70050;BMP180;57391;51.306;22.680;2024-03-02T09:30:09;99462.40;;;8.24
70050;BMP180;57391;51.306;22.680;2024-03-02T09:32:13;99463.00;;;8.30
70050;BMP180;57391;51.306;22.680;2024-03-02T09:34:16;99462.80;;;8.30
70050;BMP180;57391;51.306;22.680;2024-03-02T09:36:22;99467.00;;;8.30
70050;BMP180;57391;51.306;22.680;2024-03-02T09:38:25;99462.00;;;8.30
70050;BMP180;57391;51.306;22.680;2024-03-02T09:40:27;99462.00;;;8.30
70050;BMP180;57391;51.306;22.680;2024-03-02T09:42:30;99455.80;;;8.30
70050;BMP180;57391;51.306;22.680;2024-03-02T09:44:33;99458.00;;;8.34
70050;BMP180;57391;51.306;22.680;2024-03-02T09:46:35;99463.60;;;8.40
70050;BMP180;57391;51.306;22.680;2024-03-02T09:48:38;99463.60;;;8.48
70050;BMP180;57391;51.306;22.680;2024-03-02T09:50:41;99461.80;;;8.50
70050;BMP180;57391;51.306;22.680;2024-03-02T09:52:48;99462.20;;;8.50
70050;BMP180;57391;51.306;22.680;2024-03-02T09:54:50;99464.60;;;8.50
70050;BMP180;57391;51.306;22.680;2024-03-02T09:56:52;99466.40;;;8.54
70050;BMP180;57391;51.306;22.680;2024-03-02T09:58:54;99467.60;;;8.60
70050;BMP180;57391;51.306;22.680;2024-03-02T10:00:56;99464.00;;;8.60
70050;BMP180;57391;51.306;22.680;2024-03-02T10:03:12;99466.00;;;8.60
70050;BMP180;57391;51.306;22.680;2024-03-02T10:05:27;99467.60;;;8.60
70050;BMP180;57391;51.306;22.680;2024-03-02T10:07:29;99465.80;;;8.60
70050;BMP180;57391;51.306;22.680;2024-03-02T10:09:32;99470.60;;;8.60
70050;BMP180;57391;51.306;22.680;2024-03-02T10:11:36;99468.20;;;8.70
70050;BMP180;57391;51.306;22.680;2024-03-02T10:13:39;99465.60;;;8.70
70050;BMP180;57391;51.306;22.680;2024-03-02T10:15:42;99465.80;;;8.76
70050;BMP180;57391;51.306;22.680;2024-03-02T10:17:44;99467.60;;;8.80
70050;BMP180;57391;51.306;22.680;2024-03-02T10:21:56;99460.60;;;8.80
70050;BMP180;57391;51.306;22.680;2024-03-02T10:24:07;99458.20;;;8.80
70050;BMP180;57391;51.306;22.680;2024-03-02T10:26:17;99458.40;;;8.88
70050;BMP180;57391;51.306;22.680;2024-03-02T10:28:22;99463.20;;;8.90
70050;BMP180;57391;51.306;22.680;2024-03-02T10:30:24;99460.80;;;8.90
70050;BMP180;57391;51.306;22.680;2024-03-02T10:32:26;99460.60;;;8.90
70050;BMP180;57391;51.306;22.680;2024-03-02T10:34:28;99462.80;;;9.00
70050;BMP180;57391;51.306;22.680;2024-03-02T10:36:30;99457.80;;;9.00
70050;BMP180;57391;51.306;22.680;2024-03-02T10:38:33;99464.00;;;9.06
70050;BMP180;57391;51.306;22.680;2024-03-02T10:40:35;99457.00;;;9.10
70050;BMP180;57391;51.306;22.680;2024-03-02T10:42:38;99452.20;;;9.22
70050;BMP180;57391;51.306;22.680;2024-03-02T10:44:42;99459.60;;;9.30
70050;BMP180;57391;51.306;22.680;2024-03-02T10:46:47;99458.80;;;9.30
70050;BMP180;57391;51.306;22.680;2024-03-02T10:48:51;99461.00;;;9.40
70050;BMP180;57391;51.306;22.680;2024-03-02T10:50:53;99456.80;;;9.40
70050;BMP180;57391;51.306;22.680;2024-03-02T10:52:57;99460.40;;;9.50
70050;BMP180;57391;51.306;22.680;2024-03-02T10:54:58;99459.40;;;9.68
70050;BMP180;57391;51.306;22.680;2024-03-02T10:57:03;99461.40;;;9.80
70050;BMP180;57391;51.306;22.680;2024-03-02T11:01:31;99458.60;;;9.84
70050;BMP180;57391;51.306;22.680;2024-03-02T11:03:36;99461.20;;;9.90
70050;BMP180;57391;51.306;22.680;2024-03-02T11:05:44;99457.00;;;9.90
70050;BMP180;57391;51.306;22.680;2024-03-02T11:07:48;99458.80;;;9.90
70050;BMP180;57391;51.306;22.680;2024-03-02T11:09:59;99454.80;;;9.90
70050;BMP180;57391;51.306;22.680;2024-03-02T11:12:09;99458.00;;;9.96
70050;BMP180;57391;51.306;22.680;2024-03-02T11:14:17;99463.60;;;9.90
70050;BMP180;57391;51.306;22.680;2024-03-02T11:16:34;99459.40;;;9.90
70050;BMP180;57391;51.306;22.680;2024-03-02T11:18:38;99460.40;;;9.94
70050;BMP180;57391;51.306;22.680;2024-03-02T11:20:41;99464.60;;;10.00
70050;BMP180;57391;51.306;22.680;2024-03-02T11:22:43;99463.60;;;10.00
70050;BMP180;57391;51.306;22.680;2024-03-02T11:24:50;99465.80;;;10.00
70050;BMP180;57391;51.306;22.680;2024-03-02T11:26:54;99468.40;;;10.00
70050;BMP180;57391;51.306;22.680;2024-03-02T11:28:56;99465.80;;;10.00
70050;BMP180;57391;51.306;22.680;2024-03-02T11:31:00;99468.20;;;10.00
70050;BMP180;57391;51.306;22.680;2024-03-02T11:33:07;99467.00;;;10.00
70050;BMP180;57391;51.306;22.680;2024-03-02T11:35:09;99466.60;;;10.10
70050;BMP180;57391;51.306;22.680;2024-03-02T11:37:12;99468.60;;;10.10
70050;BMP180;57391;51.306;22.680;2024-03-02T11:39:15;99465.20;;;10.10
70050;BMP180;57391;51.306;22.680;2024-03-02T11:41:19;99464.20;;;10.10
70050;BMP180;57391;51.306;22.680;2024-03-02T11:43:21;99465.60;;;10.20
70050;BMP180;57391;51.306;22.680;2024-03-02T11:45:27;99463.40;;;10.20
70050;BMP180;57391;51.306;22.680;2024-03-02T11:47:34;99461.60;;;10.20
70050;BMP180;57391;51.306;22.680;2024-03-02T11:49:45;99460.00;;;10.30
70050;BMP180;57391;51.306;22.680;2024-03-02T11:52:01;99457.40;;;10.30
70050;BMP180;57391;51.306;22.680;2024-03-02T11:54:06;99458.00;;;10.20
70050;BMP180;57391;51.306;22.680;2024-03-02T11:56:09;99452.40;;;10.20
70050;BMP180;57391;51.306;22.680;2024-03-02T11:58:15;99455.00;;;10.20
70050;BMP180;57391;51.306;22.680;2024-03-02T12:00:28;99457.00;;;10.20
70050;BMP180;57391;51.306;22.680;2024-03-02T12:02:31;99454.00;;;10.10
70050;BMP180;57391;51.306;22.680;2024-03-02T12:04:34;99452.60;;;10.10